createdAt,value
2018-06-15T00:00:20.710Z,99480.00
2018-06-15T00:02:28.093Z,99479.00
2018-06-15T00:04:32.482Z,99483.00
2018-06-15T00:06:36.944Z,99472.00
2018-06-15T00:08:41.089Z,99478.00
2018-06-15T00:10:45.498Z,99474.00
2018-06-15T00:12:49.632Z,99483.00
2018-06-15T00:14:54.059Z,99473.00
2018-06-15T00:16:59.862Z,99477.00
2018-06-15T00:19:04.315Z,99470.00
2018-06-15T00:21:08.751Z,99470.00
2018-06-15T00:23:13.161Z,99482.00
2018-06-15T00:25:18.186Z,99475.00
2018-06-15T00:27:22.826Z,99474.00
2018-06-15T00:29:27.232Z,99477.00
2018-06-15T00:31:31.683Z,99467.00
2018-06-15T00:33:36.360Z,99467.00
2018-06-15T00:35:40.719Z,99475.00
2018-06-15T00:37:45.263Z,99468.00
2018-06-15T00:39:49.642Z,99466.00
2018-06-15T00:41:54.050Z,99471.00
2018-06-15T00:43:58.450Z,99465.00
2018-06-15T00:46:02.657Z,99472.00
2018-06-15T00:48:07.107Z,99477.00
2018-06-15T00:50:11.560Z,99459.00
2018-06-15T00:52:15.966Z,99469.00
2018-06-15T00:54:20.376Z,99468.00
2018-06-15T00:56:24.869Z,99464.00
2018-06-15T00:58:29.021Z,99470.00
2018-06-15T01:00:36.380Z,99466.00
2018-06-15T01:02:43.747Z,99462.00
2018-06-15T01:04:51.751Z,99463.00
2018-06-15T01:06:59.015Z,99463.00
2018-06-15T01:09:08.300Z,99467.00
2018-06-15T01:11:14.731Z,99466.00
2018-06-15T01:13:21.771Z,99458.00
2018-06-15T01:15:29.208Z,99455.00
2018-06-15T01:17:35.202Z,99461.00
2018-06-15T01:19:40.784Z,99457.00
2018-06-15T01:21:45.234Z,99460.00
2018-06-15T01:23:49.689Z,99463.00
2018-06-15T01:25:55.231Z,99458.00
2018-06-15T01:28:01.578Z,99455.00
2018-06-15T01:30:10.092Z,99457.00
2018-06-15T01:32:17.827Z,99456.00
2018-06-15T01:34:26.751Z,99455.00
2018-06-15T01:36:33.090Z,99451.00
2018-06-15T01:38:40.842Z,99460.00
2018-06-15T01:40:46.906Z,99437.00
2018-06-15T01:42:54.425Z,99442.00
2018-06-15T01:45:02.333Z,99438.00
2018-06-15T01:47:09.759Z,99447.00
2018-06-15T01:49:17.324Z,99443.00
2018-06-15T01:51:23.122Z,99449.00
2018-06-15T01:53:28.949Z,99443.00
2018-06-15T01:55:34.161Z,99444.00
2018-06-15T01:57:40.826Z,99445.00
2018-06-15T01:59:46.974Z,99439.00
2018-06-15T02:01:55.865Z,99446.00
2018-06-15T02:04:02.955Z,99444.00
2018-06-15T02:06:08.506Z,99439.00
2018-06-15T02:08:13.787Z,99437.00
2018-06-15T02:10:18.152Z,99436.00
2018-06-15T02:12:22.548Z,99442.00
2018-06-15T02:14:26.982Z,99436.00
2018-06-15T02:16:31.404Z,99425.00
2018-06-15T02:18:35.894Z,99430.00
2018-06-15T02:20:41.166Z,99432.00
2018-06-15T02:22:45.543Z,99427.00
2018-06-15T02:24:50.134Z,99431.00
2018-06-15T02:29:02.855Z,99439.00
2018-06-15T02:31:07.281Z,99435.00
2018-06-15T02:33:12.802Z,99425.00
2018-06-15T02:35:17.194Z,99423.00
2018-06-15T02:37:21.852Z,99426.00
2018-06-15T02:39:26.264Z,99432.00
2018-06-15T02:41:30.787Z,99433.00
2018-06-15T02:43:35.201Z,99438.00
2018-06-15T02:45:39.684Z,99436.00
2018-06-15T02:47:44.104Z,99439.00
2018-06-15T02:49:48.527Z,99443.00
2018-06-15T02:51:52.947Z,99433.00
2018-06-15T02:53:57.371Z,99437.00
2018-06-15T02:56:02.062Z,99435.00
2018-06-15T02:58:07.129Z,99434.00
2018-06-15T03:00:11.262Z,99435.00
2018-06-15T03:02:16.374Z,99431.00
2018-06-15T03:04:20.804Z,99437.00
2018-06-15T03:06:25.607Z,99437.00
2018-06-15T03:08:30.140Z,99432.00
2018-06-15T03:10:34.580Z,99433.00
2018-06-15T03:12:39.224Z,99432.00
2018-06-15T03:14:43.625Z,99430.00
2018-06-15T03:16:48.094Z,99433.00
2018-06-15T03:18:52.499Z,99443.00
2018-06-15T03:20:56.908Z,99440.00
2018-06-15T03:23:02.433Z,99451.00
2018-06-15T03:25:07.505Z,99440.00
2018-06-15T03:27:11.879Z,99453.00
2018-06-15T03:29:16.360Z,99457.00
2018-06-15T03:31:20.739Z,99457.00
2018-06-15T03:33:25.183Z,99462.00
2018-06-15T03:35:29.659Z,99457.00
2018-06-15T03:37:34.085Z,99455.00
2018-06-15T03:39:38.663Z,99457.00
2018-06-15T03:41:43.035Z,99456.00
2018-06-15T03:43:47.436Z,99463.00
2018-06-15T03:45:51.975Z,99457.00
2018-06-15T03:47:56.386Z,99464.00
2018-06-15T03:50:00.802Z,99463.00
2018-06-15T03:52:05.214Z,99473.00
2018-06-15T03:54:09.618Z,99468.00
2018-06-15T03:56:14.030Z,99468.00
2018-06-15T03:58:18.451Z,99473.00
2018-06-15T04:00:24.765Z,99474.00
2018-06-15T04:02:31.256Z,99478.00
2018-06-15T04:04:37.159Z,99476.00
2018-06-15T04:06:43.395Z,99476.00
2018-06-15T04:08:50.031Z,99473.00
2018-06-15T04:10:55.699Z,99476.00
2018-06-15T04:13:03.604Z,99476.00
2018-06-15T04:15:12.218Z,99473.00
2018-06-15T04:17:20.478Z,99484.00
2018-06-15T04:19:28.447Z,99482.00
2018-06-15T04:21:35.876Z,99482.00
2018-06-15T04:23:41.581Z,99478.00
2018-06-15T04:25:50.176Z,99478.00
2018-06-15T04:27:58.314Z,99481.00
2018-06-15T04:30:06.300Z,99484.00
2018-06-15T04:32:13.208Z,99482.00
2018-06-15T04:34:19.794Z,99492.00
2018-06-15T04:36:25.557Z,99490.00
2018-06-15T04:38:32.451Z,99489.00
2018-06-15T04:40:41.591Z,99491.00
2018-06-15T04:42:46.212Z,99485.00
2018-06-15T04:44:50.639Z,99494.00
2018-06-15T04:46:55.035Z,99495.00
2018-06-15T04:48:59.457Z,99493.00
2018-06-15T04:51:03.897Z,99494.00
2018-06-15T04:53:08.286Z,99493.00
2018-06-15T04:55:12.706Z,99485.00
2018-06-15T04:57:17.250Z,99487.00
2018-06-15T04:59:21.746Z,99486.00
2018-06-15T05:01:26.170Z,99490.00
2018-06-15T05:03:30.587Z,99480.00
2018-06-15T05:05:35.080Z,99480.00
2018-06-15T05:07:39.527Z,99482.00
2018-06-15T05:09:43.952Z,99488.00
2018-06-15T05:11:48.361Z,99498.00
2018-06-15T05:13:52.767Z,99498.00
2018-06-15T05:15:57.184Z,99501.00
2018-06-15T05:18:01.748Z,99504.00
2018-06-15T05:20:06.331Z,99499.00
2018-06-15T05:22:11.136Z,99492.00
2018-06-15T05:24:15.579Z,99496.00
2018-06-15T05:26:20.015Z,99506.00
2018-06-15T05:28:24.427Z,99503.00
2018-06-15T05:30:30.478Z,99499.00
2018-06-15T05:32:34.951Z,99502.00
2018-06-15T05:34:39.491Z,99502.00
2018-06-15T05:36:43.979Z,99501.00
2018-06-15T05:38:48.436Z,99506.00
2018-06-15T05:40:53.504Z,99514.00
2018-06-15T05:42:57.951Z,99507.00
2018-06-15T05:45:02.354Z,99504.00
2018-06-15T05:47:06.933Z,99512.00
2018-06-15T05:49:11.350Z,99506.00
2018-06-15T05:51:15.826Z,99512.00
2018-06-15T05:53:20.553Z,99513.00
2018-06-15T05:55:25.016Z,99509.00
2018-06-15T05:57:29.460Z,99516.00
2018-06-15T05:59:33.867Z,99522.00
2018-06-15T06:01:38.359Z,99514.00
2018-06-15T06:03:42.858Z,99505.00
2018-06-15T06:05:47.806Z,99517.00
2018-06-15T06:07:52.255Z,99512.00
2018-06-15T06:09:56.695Z,99517.00
2018-06-15T06:12:01.137Z,99509.00
2018-06-15T06:14:05.574Z,99519.00
2018-06-15T06:16:10.417Z,99512.00
2018-06-15T06:18:15.465Z,99517.00
2018-06-15T06:20:19.879Z,99513.00
2018-06-15T06:22:24.433Z,99524.00
2018-06-15T06:24:28.940Z,99517.00
2018-06-15T06:26:33.397Z,99517.00
2018-06-15T06:28:37.950Z,99522.00
2018-06-15T06:30:42.663Z,99516.00
2018-06-15T06:32:47.356Z,99523.00
2018-06-15T06:34:51.824Z,99536.00
2018-06-15T06:36:56.288Z,99532.00
2018-06-15T06:39:00.823Z,99533.00
2018-06-15T06:43:02.221Z,99537.00
2018-06-15T06:45:06.700Z,99533.00
2018-06-15T06:47:11.173Z,99529.00
2018-06-15T06:49:15.574Z,99530.00
2018-06-15T06:51:19.987Z,99530.00
2018-06-15T06:53:24.836Z,99529.00
2018-06-15T06:55:29.396Z,99524.00
2018-06-15T06:57:33.852Z,99527.00
2018-06-15T06:59:39.692Z,99528.00
2018-06-15T07:01:44.383Z,99536.00
2018-06-15T07:03:48.852Z,99537.00
2018-06-15T07:05:53.365Z,99534.00
2018-06-15T07:07:57.808Z,99523.00
2018-06-15T07:10:02.299Z,99530.00
2018-06-15T07:12:06.763Z,99540.00
2018-06-15T07:14:11.218Z,99538.00
2018-06-15T07:16:15.636Z,99531.00
2018-06-15T07:18:20.107Z,99532.00
2018-06-15T07:20:24.653Z,99543.00
2018-06-15T07:22:29.167Z,99534.00
2018-06-15T07:24:33.610Z,99531.00
2018-06-15T07:26:38.119Z,99530.00
2018-06-15T07:28:43.251Z,99532.00
2018-06-15T07:30:47.644Z,99532.00
2018-06-15T07:32:52.203Z,99539.00
2018-06-15T07:34:56.414Z,99539.00
2018-06-15T07:37:02.351Z,99535.00
2018-06-15T07:39:09.608Z,99533.00
2018-06-15T07:41:13.738Z,99545.00
2018-06-15T07:43:18.783Z,99551.00
2018-06-15T07:45:23.842Z,99538.00
2018-06-15T07:47:28.309Z,99541.00
2018-06-15T07:49:32.709Z,99539.00
2018-06-15T07:51:37.240Z,99554.00
2018-06-15T07:53:41.681Z,99545.00
2018-06-15T07:55:46.075Z,99538.00
2018-06-15T07:57:51.487Z,99545.00
2018-06-15T07:59:56.000Z,99544.00
2018-06-15T08:02:00.520Z,99547.00
2018-06-15T08:04:07.688Z,99543.00
2018-06-15T08:06:12.204Z,99552.00
2018-06-15T08:08:16.768Z,99561.00
2018-06-15T08:10:21.546Z,99553.00
2018-06-15T08:12:25.994Z,99547.00
2018-06-15T08:14:31.417Z,99539.00
2018-06-15T08:16:35.857Z,99545.00
2018-06-15T08:18:41.708Z,99537.00
2018-06-15T08:20:46.181Z,99547.00
2018-06-15T08:22:51.549Z,99537.00
2018-06-15T08:24:56.467Z,99548.00
2018-06-15T08:27:00.896Z,99544.00
2018-06-15T08:29:05.482Z,99534.00
2018-06-15T08:31:09.886Z,99549.00
2018-06-15T08:33:14.973Z,99549.00
2018-06-15T08:35:19.495Z,99550.00
2018-06-15T08:37:23.968Z,99554.00
2018-06-15T08:39:28.420Z,99556.00
2018-06-15T08:41:32.799Z,99550.00
2018-06-15T08:43:37.286Z,99550.00
2018-06-15T08:45:41.471Z,99547.00
2018-06-15T08:47:45.950Z,99549.00
2018-06-15T08:49:51.210Z,99539.00
2018-06-15T08:51:55.631Z,99545.00
2018-06-15T08:54:00.128Z,99532.00
2018-06-15T08:56:04.768Z,99546.00
2018-06-15T08:58:09.247Z,99543.00
2018-06-15T09:00:13.851Z,99533.00
2018-06-15T09:02:18.377Z,99535.00
2018-06-15T09:04:23.804Z,99541.00
2018-06-15T09:06:27.914Z,99542.00
2018-06-15T09:08:32.516Z,99535.00
2018-06-15T09:10:36.942Z,99547.00
2018-06-15T09:12:41.454Z,99543.00
2018-06-15T09:14:45.923Z,99544.00
2018-06-15T09:16:50.913Z,99542.00
2018-06-15T09:18:55.490Z,99545.00
2018-06-15T09:20:59.918Z,99544.00
2018-06-15T09:23:07.402Z,99539.00
2018-06-15T09:25:11.995Z,99544.00
2018-06-15T09:27:16.456Z,99544.00
2018-06-15T09:29:20.905Z,99542.00
2018-06-15T09:31:25.943Z,99548.00
2018-06-15T09:33:30.378Z,99542.00
2018-06-15T09:35:34.871Z,99540.00
2018-06-15T09:37:39.456Z,99538.00
2018-06-15T09:39:43.946Z,99543.00
2018-06-15T09:41:48.428Z,99542.00
2018-06-15T09:43:52.871Z,99543.00
2018-06-15T09:45:57.339Z,99550.00
2018-06-15T09:48:01.777Z,99550.00
2018-06-15T09:50:06.286Z,99544.00
2018-06-15T09:52:10.771Z,99551.00
2018-06-15T09:54:15.228Z,99554.00
2018-06-15T09:56:19.775Z,99547.00
2018-06-15T09:58:24.883Z,99551.00
2018-06-15T10:00:34.604Z,99555.00
2018-06-15T10:02:39.070Z,99557.00
2018-06-15T10:04:43.514Z,99563.00
2018-06-15T10:06:48.605Z,99564.00
2018-06-15T10:08:53.062Z,99555.00
2018-06-15T10:10:57.516Z,99565.00
2018-06-15T10:13:01.955Z,99567.00
2018-06-15T10:15:06.475Z,99568.00
2018-06-15T10:17:11.257Z,99566.00
2018-06-15T10:19:15.671Z,99568.00
2018-06-15T10:21:20.164Z,99568.00
2018-06-15T10:23:24.392Z,99563.00
2018-06-15T10:25:28.534Z,99567.00
2018-06-15T10:27:32.987Z,99570.00
2018-06-15T10:29:37.382Z,99562.00
2018-06-15T10:31:41.876Z,99563.00
2018-06-15T10:33:46.314Z,99565.00
2018-06-15T10:35:53.039Z,99564.00
2018-06-15T10:37:57.519Z,99569.00
2018-06-15T10:40:01.957Z,99555.00
2018-06-15T10:42:06.436Z,99560.00
2018-06-15T10:44:11.532Z,99549.00
2018-06-15T10:46:15.991Z,99555.00
2018-06-15T10:48:20.448Z,99550.00
2018-06-15T10:50:25.874Z,99548.00
2018-06-15T10:52:31.405Z,99547.00
2018-06-15T10:54:35.832Z,99543.00
2018-06-15T10:56:40.368Z,99546.00
2018-06-15T10:58:44.850Z,99535.00
2018-06-15T11:00:49.391Z,99548.00
2018-06-15T11:02:54.696Z,99547.00
2018-06-15T11:04:59.331Z,99541.00
2018-06-15T11:07:04.398Z,99542.00
2018-06-15T11:09:09.893Z,99536.00
2018-06-15T11:11:14.632Z,99545.00
2018-06-15T11:13:19.983Z,99541.00
2018-06-15T11:15:24.892Z,99550.00
2018-06-15T11:17:30.376Z,99545.00
2018-06-15T11:19:35.717Z,99541.00
2018-06-15T11:21:41.241Z,99543.00
2018-06-15T11:23:46.474Z,99541.00
2018-06-15T11:25:52.276Z,99542.00
2018-06-15T11:27:57.424Z,99536.00
2018-06-15T11:30:02.878Z,99533.00
2018-06-15T11:32:07.422Z,99537.00
2018-06-15T11:34:11.945Z,99534.00
2018-06-15T11:36:16.429Z,99532.00
2018-06-15T11:38:21.964Z,99532.00
2018-06-15T11:40:26.351Z,99526.00
2018-06-15T11:42:30.830Z,99521.00
2018-06-15T11:44:35.293Z,99529.00
2018-06-15T11:46:39.789Z,99519.00
2018-06-15T11:48:44.303Z,99527.00
2018-06-15T11:50:48.767Z,99529.00
2018-06-15T11:52:53.427Z,99526.00
2018-06-15T11:54:57.868Z,99526.00
2018-06-15T11:57:02.332Z,99527.00
2018-06-15T11:59:06.792Z,99517.00
2018-06-15T12:01:11.305Z,99518.00
2018-06-15T12:03:15.691Z,99519.00
2018-06-15T12:05:20.205Z,99515.00
2018-06-15T12:07:24.384Z,99515.00
2018-06-15T12:09:28.810Z,99514.00
2018-06-15T12:11:33.358Z,99511.00
2018-06-15T12:13:39.117Z,99507.00
2018-06-15T12:15:43.351Z,99510.00
2018-06-15T12:17:47.807Z,99516.00
2018-06-15T12:19:52.298Z,99507.00
2018-06-15T12:21:56.806Z,99506.00
2018-06-15T12:24:03.028Z,99504.00
2018-06-15T12:26:07.234Z,99506.00
2018-06-15T12:28:11.791Z,99508.00
2018-06-15T12:30:16.335Z,99513.00
2018-06-15T12:32:20.828Z,99500.00
2018-06-15T12:34:25.503Z,99500.00
2018-06-15T12:36:30.183Z,99499.00
2018-06-15T12:38:37.043Z,99501.00
2018-06-15T12:40:41.822Z,99499.00
2018-06-15T12:42:47.639Z,99501.00
2018-06-15T12:44:52.057Z,99498.00
2018-06-15T12:46:57.391Z,99502.00
2018-06-15T12:49:02.955Z,99497.00
2018-06-15T12:53:17.253Z,99497.00
2018-06-15T12:55:22.485Z,99489.00
2018-06-15T12:57:28.009Z,99492.00
2018-06-15T12:59:35.073Z,99495.00
2018-06-15T13:01:42.179Z,99485.00
2018-06-15T13:03:49.985Z,99493.00
2018-06-15T13:05:57.829Z,99496.00
2018-06-15T13:08:02.673Z,99490.00
2018-06-15T13:10:09.193Z,99495.00
2018-06-15T13:12:13.336Z,99490.00
2018-06-15T13:14:18.080Z,99493.00
2018-06-15T13:16:22.568Z,99490.00
2018-06-15T13:18:27.354Z,99487.00
2018-06-15T13:20:33.681Z,99480.00
2018-06-15T13:22:39.557Z,99482.00
2018-06-15T13:24:44.459Z,99486.00
2018-06-15T13:26:49.341Z,99478.00
2018-06-15T13:28:55.578Z,99480.00
2018-06-15T13:31:01.416Z,99489.00
2018-06-15T13:33:06.181Z,99485.00
2018-06-15T13:35:10.637Z,99488.00
2018-06-15T13:37:15.107Z,99483.00
2018-06-15T13:39:20.246Z,99480.00
2018-06-15T13:41:24.995Z,99483.00
2018-06-15T13:43:30.306Z,99485.00
2018-06-15T13:45:36.161Z,99489.00
2018-06-15T13:47:41.936Z,99489.00
2018-06-15T13:49:46.809Z,99479.00
2018-06-15T13:51:53.432Z,99483.00
2018-06-15T13:53:59.492Z,99485.00
2018-06-15T13:56:05.814Z,99489.00
2018-06-15T13:58:13.499Z,99488.00
2018-06-15T14:00:20.813Z,99488.00
2018-06-15T14:02:27.337Z,99486.00
2018-06-15T14:04:33.996Z,99485.00
2018-06-15T14:06:41.751Z,99485.00
2018-06-15T14:08:54.678Z,99474.00
2018-06-15T14:11:02.934Z,99479.00
2018-06-15T14:13:08.051Z,99481.00
2018-06-15T14:15:14.534Z,99477.00
2018-06-15T14:17:19.512Z,99476.00
2018-06-15T14:19:26.912Z,99481.00
2018-06-15T14:21:34.977Z,99479.00
2018-06-15T14:23:41.863Z,99470.00
2018-06-15T14:25:49.845Z,99478.00
2018-06-15T14:27:57.529Z,99477.00
2018-06-15T14:30:03.352Z,99475.00
2018-06-15T14:32:07.817Z,99475.00
2018-06-15T14:34:12.530Z,99476.00
2018-06-15T14:36:16.985Z,99475.00
2018-06-15T14:38:21.575Z,99478.00
2018-06-15T14:40:26.110Z,99483.00
2018-06-15T14:42:30.517Z,99478.00
2018-06-15T14:44:35.308Z,99476.00
2018-06-15T14:46:39.742Z,99477.00
2018-06-15T14:48:44.200Z,99477.00
2018-06-15T14:50:48.673Z,99478.00
2018-06-15T14:52:55.779Z,99479.00
2018-06-15T14:55:00.383Z,99483.00
2018-06-15T14:57:04.861Z,99471.00
2018-06-15T14:59:10.057Z,99466.00
2018-06-15T15:01:14.542Z,99468.00
2018-06-15T15:03:19.498Z,99460.00
2018-06-15T15:05:24.255Z,99468.00
2018-06-15T15:07:29.344Z,99460.00
2018-06-15T15:09:34.215Z,99461.00
2018-06-15T15:11:39.558Z,99457.00
2018-06-15T15:13:44.709Z,99460.00
2018-06-15T15:15:49.403Z,99458.00
2018-06-15T15:17:54.416Z,99457.00
2018-06-15T15:19:59.557Z,99456.00
2018-06-15T15:22:04.875Z,99453.00
2018-06-15T15:24:10.005Z,99459.00
2018-06-15T15:26:16.500Z,99454.00
2018-06-15T15:28:21.482Z,99459.00
2018-06-15T15:30:26.035Z,99463.00
2018-06-15T15:32:31.218Z,99460.00
2018-06-15T15:34:36.159Z,99448.00
2018-06-15T15:36:40.611Z,99460.00
2018-06-15T15:38:45.516Z,99459.00
2018-06-15T15:40:50.325Z,99457.00
2018-06-15T15:42:55.690Z,99448.00
2018-06-15T15:45:00.744Z,99452.00
2018-06-15T15:47:05.616Z,99452.00
2018-06-15T15:49:10.970Z,99456.00
2018-06-15T15:51:16.035Z,99455.00
2018-06-15T15:53:21.372Z,99442.00
2018-06-15T15:55:26.295Z,99447.00
2018-06-15T15:57:31.242Z,99439.00
2018-06-15T15:59:35.990Z,99434.00
2018-06-15T16:01:40.445Z,99440.00
2018-06-15T16:03:45.432Z,99442.00
2018-06-15T16:05:50.317Z,99430.00
2018-06-15T16:07:55.362Z,99443.00
2018-06-15T16:09:59.824Z,99437.00
2018-06-15T16:12:04.860Z,99437.00
2018-06-15T16:14:09.652Z,99430.00
2018-06-15T16:16:14.874Z,99431.00
2018-06-15T16:18:19.738Z,99425.00
2018-06-15T16:20:24.943Z,99421.00
2018-06-15T16:22:29.388Z,99423.00
2018-06-15T16:24:33.860Z,99419.00
2018-06-15T16:26:38.422Z,99422.00
2018-06-15T16:28:43.072Z,99426.00
2018-06-15T16:30:47.765Z,99423.00
2018-06-15T16:32:53.021Z,99430.00
2018-06-15T16:34:58.104Z,99427.00
2018-06-15T16:37:02.629Z,99429.00
2018-06-15T16:39:09.231Z,99424.00
2018-06-15T16:41:14.000Z,99425.00
2018-06-15T16:43:18.460Z,99419.00
2018-06-15T16:45:23.016Z,99422.00
2018-06-15T16:47:28.265Z,99416.00
2018-06-15T16:49:32.708Z,99419.00
2018-06-15T16:51:37.529Z,99426.00
2018-06-15T16:53:43.051Z,99415.00
2018-06-15T16:55:47.626Z,99426.00
2018-06-15T16:57:52.140Z,99428.00
2018-06-15T16:59:56.679Z,99421.00
2018-06-15T17:02:01.376Z,99422.00
2018-06-15T17:04:05.922Z,99420.00
2018-06-15T17:06:10.535Z,99416.00
2018-06-15T17:08:15.809Z,99410.00
2018-06-15T17:10:20.834Z,99413.00
2018-06-15T17:12:25.374Z,99421.00
2018-06-15T17:14:30.050Z,99415.00
2018-06-15T17:16:35.267Z,99422.00
2018-06-15T17:18:40.057Z,99427.00
2018-06-15T17:20:44.880Z,99430.00
2018-06-15T17:22:49.654Z,99431.00
2018-06-15T17:24:54.148Z,99420.00
2018-06-15T17:26:58.783Z,99423.00
2018-06-15T17:29:03.983Z,99428.00
2018-06-15T17:31:09.252Z,99424.00
2018-06-15T17:33:14.402Z,99422.00
2018-06-15T17:35:18.974Z,99428.00
2018-06-15T17:37:23.499Z,99426.00
2018-06-15T17:39:28.126Z,99432.00
2018-06-15T17:41:33.007Z,99437.00
2018-06-15T17:43:38.244Z,99440.00
2018-06-15T17:45:44.037Z,99432.00
2018-06-15T17:47:48.731Z,99441.00
2018-06-15T17:49:54.380Z,99444.00
2018-06-15T17:51:58.978Z,99441.00
2018-06-15T17:54:03.992Z,99438.00
2018-06-15T17:56:08.816Z,99443.00
2018-06-15T17:58:13.074Z,99444.00
2018-06-15T18:00:18.183Z,99448.00
2018-06-15T18:02:23.511Z,99450.00
2018-06-15T18:04:27.933Z,99440.00
2018-06-15T18:06:32.453Z,99449.00
2018-06-15T18:08:36.958Z,99450.00
2018-06-15T18:10:41.366Z,99452.00
2018-06-15T18:12:45.840Z,99450.00
2018-06-15T18:14:50.518Z,99446.00
2018-06-15T18:16:54.999Z,99448.00
2018-06-15T18:18:59.668Z,99446.00
2018-06-15T18:21:04.396Z,99446.00
2018-06-15T18:23:09.338Z,99452.00
2018-06-15T18:25:15.133Z,99457.00
2018-06-15T18:27:19.896Z,99449.00
2018-06-15T18:29:24.922Z,99452.00
2018-06-15T18:31:29.626Z,99448.00
2018-06-15T18:33:34.098Z,99447.00
2018-06-15T18:35:38.976Z,99461.00
2018-06-15T18:37:44.287Z,99452.00
2018-06-15T18:39:49.420Z,99451.00
2018-06-15T18:41:53.860Z,99453.00
2018-06-15T18:43:58.298Z,99448.00
2018-06-15T18:46:03.566Z,99458.00
2018-06-15T18:48:08.701Z,99458.00
2018-06-15T18:50:13.337Z,99452.00
2018-06-15T18:52:17.783Z,99453.00
2018-06-15T18:54:22.348Z,99455.00
2018-06-15T18:56:28.146Z,99453.00
2018-06-15T18:58:32.794Z,99454.00
2018-06-15T19:00:37.424Z,99450.00
2018-06-15T19:02:41.930Z,99452.00
2018-06-15T19:04:46.930Z,99450.00
2018-06-15T19:06:51.496Z,99453.00
2018-06-15T19:08:55.985Z,99454.00
2018-06-15T19:11:00.473Z,99452.00
2018-06-15T19:13:05.776Z,99452.00
2018-06-15T19:15:11.783Z,99453.00
2018-06-15T19:17:16.304Z,99457.00
2018-06-15T19:19:20.839Z,99449.00
2018-06-15T19:21:25.852Z,99452.00
2018-06-15T19:23:30.757Z,99450.00
2018-06-15T19:25:42.958Z,99463.00
2018-06-15T19:27:47.722Z,99454.00
2018-06-15T19:29:53.585Z,99456.00
2018-06-15T19:31:59.533Z,99453.00
2018-06-15T19:34:05.914Z,99448.00
2018-06-15T19:36:10.691Z,99457.00
2018-06-15T19:38:15.943Z,99455.00
2018-06-15T19:40:20.581Z,99460.00
2018-06-15T19:42:25.311Z,99457.00
2018-06-15T19:44:29.922Z,99456.00
2018-06-15T19:46:34.644Z,99466.00
2018-06-15T19:48:39.729Z,99458.00
2018-06-15T19:50:44.709Z,99453.00
2018-06-15T19:52:49.204Z,99461.00
2018-06-15T19:54:54.307Z,99460.00
2018-06-15T19:56:58.835Z,99458.00
2018-06-15T19:59:03.402Z,99458.00
2018-06-15T20:01:08.124Z,99463.00
2018-06-15T20:03:14.841Z,99467.00
2018-06-15T20:05:21.250Z,99457.00
2018-06-15T20:07:30.358Z,99459.00
2018-06-15T20:09:37.594Z,99461.00
2018-06-15T20:11:42.029Z,99459.00
2018-06-15T20:13:46.509Z,99452.00
2018-06-15T20:15:54.413Z,99455.00
2018-06-15T20:18:00.890Z,99450.00
2018-06-15T20:20:10.387Z,99458.00
2018-06-15T20:22:16.223Z,99458.00
2018-06-15T20:24:21.483Z,99458.00
2018-06-15T20:26:26.094Z,99458.00
2018-06-15T20:28:30.622Z,99462.00
2018-06-15T20:30:35.526Z,99457.00
2018-06-15T20:32:40.344Z,99456.00
2018-06-15T20:34:45.142Z,99459.00
2018-06-15T20:36:49.990Z,99461.00
2018-06-15T20:38:54.424Z,99462.00
2018-06-15T20:40:58.859Z,99456.00
2018-06-15T20:43:03.318Z,99461.00
2018-06-15T20:45:07.789Z,99461.00
2018-06-15T20:47:12.259Z,99453.00
2018-06-15T20:49:17.942Z,99456.00
2018-06-15T20:51:22.761Z,99456.00
2018-06-15T20:53:27.612Z,99453.00
2018-06-15T20:55:33.088Z,99452.00
2018-06-15T20:57:38.908Z,99452.00
2018-06-15T20:59:44.066Z,99445.00
2018-06-15T21:01:48.539Z,99455.00
2018-06-15T21:03:53.159Z,99453.00
2018-06-15T21:05:57.868Z,99452.00
2018-06-15T21:08:03.237Z,99457.00
2018-06-15T21:10:07.680Z,99457.00
2018-06-15T21:12:12.227Z,99446.00
2018-06-15T21:14:16.754Z,99449.00
2018-06-15T21:16:21.321Z,99441.00
2018-06-15T21:18:25.819Z,99438.00
2018-06-15T21:20:30.379Z,99451.00
2018-06-15T21:22:36.275Z,99427.00
2018-06-15T21:24:43.109Z,99442.00
2018-06-15T21:26:47.777Z,99450.00
2018-06-15T21:28:52.340Z,99441.00
2018-06-15T21:30:56.894Z,99438.00
2018-06-15T21:33:01.856Z,99435.00
2018-06-15T21:35:06.657Z,99428.00
2018-06-15T21:37:11.082Z,99437.00
2018-06-15T21:39:15.914Z,99437.00
2018-06-15T21:41:20.531Z,99436.00
2018-06-15T21:43:25.914Z,99437.00
2018-06-15T21:45:30.907Z,99440.00
2018-06-15T21:47:35.332Z,99428.00
2018-06-15T21:49:40.384Z,99432.00
2018-06-15T21:51:46.118Z,99437.00
2018-06-15T21:53:50.278Z,99426.00
2018-06-15T21:55:55.483Z,99429.00
2018-06-15T21:57:59.922Z,99426.00
2018-06-15T22:00:07.862Z,99434.00
2018-06-15T22:02:12.428Z,99432.00
2018-06-15T22:04:17.066Z,99430.00
2018-06-15T22:06:21.827Z,99434.00
2018-06-15T22:08:26.301Z,99432.00
2018-06-15T22:10:30.485Z,99434.00
2018-06-15T22:12:35.199Z,99440.00
2018-06-15T22:14:39.684Z,99437.00
2018-06-15T22:16:51.314Z,99436.00
2018-06-15T22:18:56.314Z,99429.00
2018-06-15T22:21:01.446Z,99424.00
2018-06-15T22:23:05.989Z,99428.00
2018-06-15T22:25:10.107Z,99429.00
2018-06-15T22:27:14.550Z,99432.00
2018-06-15T22:29:19.624Z,99422.00
2018-06-15T22:31:24.131Z,99437.00
2018-06-15T22:33:28.706Z,99445.00
2018-06-15T22:35:33.172Z,99434.00
2018-06-15T22:37:39.267Z,99430.00
2018-06-15T22:39:45.078Z,99437.00
2018-06-15T22:41:49.520Z,99424.00
2018-06-15T22:43:53.983Z,99437.00
2018-06-15T22:45:58.757Z,99436.00
2018-06-15T22:48:03.415Z,99442.00
2018-06-15T22:50:08.203Z,99441.00
2018-06-15T22:52:12.814Z,99437.00
2018-06-15T22:54:17.218Z,99436.00
2018-06-15T22:56:22.284Z,99437.00
2018-06-15T22:58:29.335Z,99434.00
2018-06-15T23:00:36.538Z,99431.00
2018-06-15T23:02:44.285Z,99434.00
2018-06-15T23:04:48.923Z,99438.00
2018-06-15T23:06:53.451Z,99433.00
2018-06-15T23:08:57.843Z,99431.00
2018-06-15T23:11:02.271Z,99434.00
2018-06-15T23:13:06.713Z,99428.00
2018-06-15T23:15:12.032Z,99436.00
2018-06-15T23:17:16.487Z,99446.00
2018-06-15T23:19:21.867Z,99443.00
2018-06-15T23:21:26.347Z,99438.00
2018-06-15T23:23:30.817Z,99441.00
2018-06-15T23:25:35.279Z,99438.00
2018-06-15T23:27:39.764Z,99442.00
2018-06-15T23:29:44.164Z,99429.00
2018-06-15T23:31:49.743Z,99433.00
2018-06-15T23:33:54.168Z,99428.00
2018-06-15T23:35:58.599Z,99443.00
2018-06-15T23:38:02.738Z,99431.00
2018-06-15T23:40:07.349Z,99432.00
2018-06-15T23:42:11.774Z,99430.00
2018-06-15T23:44:16.210Z,99428.00
2018-06-15T23:46:20.687Z,99434.00
2018-06-15T23:48:25.924Z,99427.00
2018-06-15T23:50:30.913Z,99431.00
2018-06-15T23:52:35.377Z,99428.00
2018-06-15T23:54:39.843Z,99428.00
2018-06-15T23:56:44.274Z,99429.00
2018-06-15T23:58:48.733Z,99424.00
